Relevés horaires Florennes (Belgique)


Relevés horaires à Florennes - Dimanche 09 Août 2026
Heure UTC1 Température [°C] Vent [km/h] Hum. [%] Pres.4 [hPa] Visi. [Km] Nébu. [octa] Préc.5 [mm] Cond.
2m. Res. Ros. Dir.2 Vit. Moy. Raf.3
23:00 20.7 20.7 9.4 NNO 1.9 -- 7.4 48 1014.2(-0.6/3h) >70 -- -- --
22:00 21.0 21.0 9.2 NNO 1.9 -- 5.6 47 1014.7(0.0/3h) >70 -- -- --
21:00 20.4 20.4 9.0 NNO 1.9 -- 5.6 48 1014.7(0.0/3h) >70 -- -- --
20:00 21.1 21.1 9.1 NNO 1.9 -- 1.9 46 1014.8(0.2/3h) >70 -- -- --
19:00 22.1 22.1 9.2 NNO 1.9 -- 1.9 44 1014.5(-0.5/3h) >70 -- -- --
18:00 23.7 23.7 8.5 NNO 1.9 -- 13.0 38 1014.3(-0.7/3h) >70 -- 0.1/12h
NA
17:00 23.0 23.0 9.1 NNO 1.9 -- 3.7 41 1014.5(-1.2/3h) 70 -- -- --
16:00 23.5 23.5 8.5 NNO 1.9 -- 7.4 38 1014.8(-0.4/3h) >70 -- -- --
15:00 23.1 23.1 9.8 O 5.6 -- 13.0 43 1015.2(-0.2/3h) >70 -- -- NA
14:00 24.7 24.7 7.7 SSO 7.4 -- 13.0 34 1015.5(0.2/3h) 70 -- -- Il y a de la pluie faible et continue à la station au moment de l'observation
13:00 26.7 26.7 5.5 SSO 7.4 -- 11.1 26 1015.1(0.1/3h) >70 -- -- --
12:00 26.2 26.2 6.0 SSO 5.6 -- 9.3 27 1015.2(0.6/3h) 70 -- -- Ciel clair
11:00 26.6 26.6 7.4 S 5.6 -- 9.3 30 1015.1(0.9/3h) >70 -- -- --
10:00 26.4 26.4 10.8 S 3.7 -- 5.6 38 1014.7(0.5/3h) >70 -- -- --
09:00 25.2 25.2 8.3 NNO 1.9 -- 5.6 34 1014.6(0.4/3h) >70 -- -- --
08:00 23.7 23.7 8.2 NNO 1.9 -- 3.7 37 1014.5(0.2/3h) >70 -- -- --
07:00 19.2 19.2 11.4 NNO 1.9 -- 1.9 61 1015(0.4/3h) >70 -- -- --
06:00 16.7 16.7 10.3 NNO 1.9 -- 3.7 66 1015.2(-0.1/3h) >70 -- -- --
05:00 15.1 15.1 7.6 NNO 1.9 -- 1.9 61 1015.2(-0.4/3h) >70 -- -- --
04:00 13.9 13.9 7.2 NNO 1.9 -- 1.9 64 1015.2(-1.1/3h) >70 -- -- --
03:00 15.1 15.1 6.7 NNO 1.9 -- 3.7 57 1015.5(-1.3/3h) >70 -- -- --
02:00 15.7 15.7 6.9 NNO 1.9 -- 3.7 56 1015.6(-1.6/3h) >70 -- -- --
01:00 15.9 15.9 7.2 NNO 1.9 -- 3.7 56 1016.2(-0.9/3h) >70 -- -- --
00:00 16.5 16.5 7.5 NNO 1.9 -- 11.1 55 1016.7(-0.6/3h) >70 -- -- --

1 Coordinated Universal Time. Actuellement il est 20:00 locale et 18:00 UTC.

2 Le vent souffle depuis la direction indiquée vers la direction oposée.

3 Les rafales max. sont disponible 40 min après l'heure du relevé.

4 Pour les stations d'altitude (plus de 600m) le géopotentiel du niveau le plus proche de la pression obligatoire est indiqué.

5 Les stations disposant d'un diffuseur peuvent indiquer "trace". Cela signifie que des précipitations ont touchés le sol mais que la quantité est inférieure à 0.1 mm.

Récapitulatif de la journée
Température [°C] Vent [km/h] Ensoleillement4 [h] Precipitations totale5 [mm] Pression [Hpa]
Min1 Max.2 Moy.3 Max. Min Max.
13.0 27.4 0 13.0 0 h 0 min 0 1014.2 1016.7

1 Température minimale relevée entre 18:00 UTC la veille et 18:00 UTC le jour donné.

2 Température maximale relevée entre 06:00 UTC le jour donné et 06:00 UTC le lendemain.

3 Vent moyen de la journée basé sur les relevés horaires.

4 Ensoleillement en heures relevé entre 06:00 UTC la veille et 06:00 UTC le jour donné.

5 Précipitations totales tombées entre 06:00 UTC la jour donné et 06:00 UTC le lendemain.

Graphiques horaires